Etusivu
METAR-TAF:

METAR-TAF

Lentoasemat :

Black River Falls, Wisconsin, Yhdysvallat

Leveyspiiri: 44-15-03N, Pituuspiiri: 090-51-19W, korkeus merenpinnasta: 255 m

Tämänhetkinen sää

Tämä raportti tehtiin 47 minuuttia sitten, kello 13.55 UTC
tyyntä
Lämpötila 14°C
Kosteus 94%
Ilmanpaine 1005 hPa
Näkyvyys: 16.1 km
selkeää

METAR: KBCK 271355Z AUTO 00000KT 10SM CLR 14/13 A2967 RMK AO2 T01360131

Aika: 09:42 (14:42 UTC)


TAF: puuttuu

Säähavainnot ja -ennusteet yli 4000 lentoasemalta (METAR- ja TAF-raportit).

Käytössä olevat sääasemat on merkitty karttaan keltaisilla ja punaisilla pisteillä.

Aseta hiiri pisteen päälle nähdäksesi sääaseman nimen.

Klikkaa sitten nähdäksesi säähavainnot ja -ennusteet.

Kartan vaihtaminen: klikkaa mustalla rastilla varustettuja vihreitä pisteitä, niin voit zoomata sisään; viivalla varustettua vihreää pistettä, niin voit zoomata ulos tai vihreitä nuolia, niin pääset viereisille kartoille.


METAR-TAF: